sensor_id;sensor_type;location;lat;lon;timestamp;P1;durP1;ratioP1;P2;durP2;ratioP2
49614;SDS011;35517;45.272;9.984;2023-04-06T00:02:08;6.47;;;4.30;;
49614;SDS011;35517;45.272;9.984;2023-04-06T00:04:35;7.57;;;4.10;;
49614;SDS011;35517;45.272;9.984;2023-04-06T00:07:02;9.77;;;5.03;;
49614;SDS011;35517;45.272;9.984;2023-04-06T00:09:28;8.75;;;3.90;;
49614;SDS011;35517;45.272;9.984;2023-04-06T00:11:55;6.75;;;3.58;;
49614;SDS011;35517;45.272;9.984;2023-04-06T00:14:21;10.57;;;3.58;;
49614;SDS011;35517;45.272;9.984;2023-04-06T00:16:48;5.75;;;4.10;;
49614;SDS011;35517;45.272;9.984;2023-04-06T00:19:15;6.90;;;3.53;;
49614;SDS011;35517;45.272;9.984;2023-04-06T00:21:41;8.65;;;4.40;;
49614;SDS011;35517;45.272;9.984;2023-04-06T00:24:08;9.63;;;3.88;;
49614;SDS011;35517;45.272;9.984;2023-04-06T00:26:34;6.03;;;4.00;;
49614;SDS011;35517;45.272;9.984;2023-04-06T00:29:01;7.53;;;3.88;;
49614;SDS011;35517;45.272;9.984;2023-04-06T00:31:28;8.82;;;4.47;;
49614;SDS011;35517;45.272;9.984;2023-04-06T00:33:59;9.05;;;4.05;;
49614;SDS011;35517;45.272;9.984;2023-04-06T00:36:25;8.35;;;4.47;;
49614;SDS011;35517;45.272;9.984;2023-04-06T00:38:52;8.77;;;4.90;;
49614;SDS011;35517;45.272;9.984;2023-04-06T00:41:19;10.35;;;4.70;;
49614;SDS011;35517;45.272;9.984;2023-04-06T00:43:46;8.18;;;5.00;;
49614;SDS011;35517;45.272;9.984;2023-04-06T00:46:12;18.10;;;4.43;;
49614;SDS011;35517;45.272;9.984;2023-04-06T00:48:39;8.27;;;4.80;;
49614;SDS011;35517;45.272;9.984;2023-04-06T00:51:06;9.32;;;4.18;;
49614;SDS011;35517;45.272;9.984;2023-04-06T00:53:32;7.57;;;3.85;;
49614;SDS011;35517;45.272;9.984;2023-04-06T00:56:00;10.93;;;5.05;;
49614;SDS011;35517;45.272;9.984;2023-04-06T00:58:32;6.53;;;3.72;;
49614;SDS011;35517;45.272;9.984;2023-04-06T01:01:05;7.55;;;4.07;;
49614;SDS011;35517;45.272;9.984;2023-04-06T01:03:33;7.30;;;4.60;;
49614;SDS011;35517;45.272;9.984;2023-04-06T01:05:59;8.52;;;4.35;;
49614;SDS011;35517;45.272;9.984;2023-04-06T01:08:33;12.35;;;3.85;;
49614;SDS011;35517;45.272;9.984;2023-04-06T01:11:20;9.05;;;4.40;;
49614;SDS011;35517;45.272;9.984;2023-04-06T01:13:48;11.30;;;4.53;;
49614;SDS011;35517;45.272;9.984;2023-04-06T01:16:27;8.98;;;4.97;;
49614;SDS011;35517;45.272;9.984;2023-04-06T01:19:19;6.78;;;4.28;;
49614;SDS011;35517;45.272;9.984;2023-04-06T01:21:52;7.50;;;4.38;;
49614;SDS011;35517;45.272;9.984;2023-04-06T01:24:30;10.32;;;5.40;;
49614;SDS011;35517;45.272;9.984;2023-04-06T01:27:04;7.53;;;4.32;;
49614;SDS011;35517;45.272;9.984;2023-04-06T01:29:43;7.63;;;4.50;;
49614;SDS011;35517;45.272;9.984;2023-04-06T01:32:15;8.45;;;4.53;;
49614;SDS011;35517;45.272;9.984;2023-04-06T01:34:48;14.98;;;5.03;;
49614;SDS011;35517;45.272;9.984;2023-04-06T01:37:15;7.03;;;3.97;;
49614;SDS011;35517;45.272;9.984;2023-04-06T01:39:42;6.22;;;4.88;;
49614;SDS011;35517;45.272;9.984;2023-04-06T01:42:11;8.63;;;4.43;;
49614;SDS011;35517;45.272;9.984;2023-04-06T01:44:39;6.95;;;4.75;;
49614;SDS011;35517;45.272;9.984;2023-04-06T01:47:10;8.32;;;4.97;;
49614;SDS011;35517;45.272;9.984;2023-04-06T01:49:37;7.35;;;3.92;;
49614;SDS011;35517;45.272;9.984;2023-04-06T01:52:04;6.57;;;4.38;;
49614;SDS011;35517;45.272;9.984;2023-04-06T01:54:30;8.95;;;4.72;;
49614;SDS011;35517;45.272;9.984;2023-04-06T01:57:10;9.38;;;5.38;;
49614;SDS011;35517;45.272;9.984;2023-04-06T01:59:47;8.15;;;4.63;;
49614;SDS011;35517;45.272;9.984;2023-04-06T02:02:24;7.97;;;4.60;;
49614;SDS011;35517;45.272;9.984;2023-04-06T02:05:05;6.97;;;4.15;;
49614;SDS011;35517;45.272;9.984;2023-04-06T02:07:31;9.73;;;4.50;;
49614;SDS011;35517;45.272;9.984;2023-04-06T02:09:59;8.35;;;4.20;;
49614;SDS011;35517;45.272;9.984;2023-04-06T02:12:34;6.53;;;4.00;;
49614;SDS011;35517;45.272;9.984;2023-04-06T02:15:01;6.88;;;3.97;;
49614;SDS011;35517;45.272;9.984;2023-04-06T02:17:28;9.90;;;4.78;;
49614;SDS011;35517;45.272;9.984;2023-04-06T02:19:55;7.90;;;3.92;;
49614;SDS011;35517;45.272;9.984;2023-04-06T02:22:22;6.15;;;4.50;;
49614;SDS011;35517;45.272;9.984;2023-04-06T02:24:48;7.78;;;4.07;;
49614;SDS011;35517;45.272;9.984;2023-04-06T02:27:15;8.07;;;4.25;;
49614;SDS011;35517;45.272;9.984;2023-04-06T02:29:45;7.18;;;3.83;;
49614;SDS011;35517;45.272;9.984;2023-04-06T02:32:14;9.40;;;4.15;;
49614;SDS011;35517;45.272;9.984;2023-04-06T02:34:40;7.05;;;4.07;;
49614;SDS011;35517;45.272;9.984;2023-04-06T02:37:07;6.13;;;4.22;;
49614;SDS011;35517;45.272;9.984;2023-04-06T02:39:33;8.98;;;4.13;;
49614;SDS011;35517;45.272;9.984;2023-04-06T02:42:01;5.75;;;4.03;;
49614;SDS011;35517;45.272;9.984;2023-04-06T02:44:29;13.05;;;5.40;;
49614;SDS011;35517;45.272;9.984;2023-04-06T02:46:55;4.70;;;3.70;;
49614;SDS011;35517;45.272;9.984;2023-04-06T02:49:22;7.00;;;4.57;;
49614;SDS011;35517;45.272;9.984;2023-04-06T02:51:52;7.28;;;3.85;;
49614;SDS011;35517;45.272;9.984;2023-04-06T02:54:26;6.13;;;4.45;;
49614;SDS011;35517;45.272;9.984;2023-04-06T02:56:52;9.70;;;4.38;;
49614;SDS011;35517;45.272;9.984;2023-04-06T02:59:19;7.15;;;4.22;;
49614;SDS011;35517;45.272;9.984;2023-04-06T03:01:57;8.27;;;4.38;;
49614;SDS011;35517;45.272;9.984;2023-04-06T03:04:23;11.63;;;5.18;;
49614;SDS011;35517;45.272;9.984;2023-04-06T03:06:53;8.07;;;4.07;;
49614;SDS011;35517;45.272;9.984;2023-04-06T03:09:31;9.23;;;5.22;;
49614;SDS011;35517;45.272;9.984;2023-04-06T03:11:58;10.25;;;4.10;;
49614;SDS011;35517;45.272;9.984;2023-04-06T03:14:25;13.30;;;4.97;;
49614;SDS011;35517;45.272;9.984;2023-04-06T03:16:51;9.88;;;4.88;;
49614;SDS011;35517;45.272;9.984;2023-04-06T03:19:21;8.88;;;4.93;;
49614;SDS011;35517;45.272;9.984;2023-04-06T03:21:48;6.90;;;4.00;;
49614;SDS011;35517;45.272;9.984;2023-04-06T03:24:16;9.82;;;4.63;;
49614;SDS011;35517;45.272;9.984;2023-04-06T03:26:43;12.88;;;4.97;;
49614;SDS011;35517;45.272;9.984;2023-04-06T03:29:09;8.07;;;4.20;;
49614;SDS011;35517;45.272;9.984;2023-04-06T03:31:36;11.48;;;4.90;;
49614;SDS011;35517;45.272;9.984;2023-04-06T03:34:07;7.72;;;4.28;;
49614;SDS011;35517;45.272;9.984;2023-04-06T03:36:35;8.40;;;4.53;;
49614;SDS011;35517;45.272;9.984;2023-04-06T03:39:03;10.30;;;4.80;;
49614;SDS011;35517;45.272;9.984;2023-04-06T03:41:32;9.27;;;4.30;;
49614;SDS011;35517;45.272;9.984;2023-04-06T03:44:05;8.18;;;4.30;;
49614;SDS011;35517;45.272;9.984;2023-04-06T03:46:31;11.60;;;5.63;;
49614;SDS011;35517;45.272;9.984;2023-04-06T03:48:58;6.07;;;4.07;;
49614;SDS011;35517;45.272;9.984;2023-04-06T03:51:25;19.70;;;5.88;;
49614;SDS011;35517;45.272;9.984;2023-04-06T03:53:52;12.45;;;5.53;;
49614;SDS011;35517;45.272;9.984;2023-04-06T03:56:18;5.55;;;4.30;;
49614;SDS011;35517;45.272;9.984;2023-04-06T03:58:46;9.38;;;3.95;;
49614;SDS011;35517;45.272;9.984;2023-04-06T04:01:18;11.55;;;4.25;;
49614;SDS011;35517;45.272;9.984;2023-04-06T04:03:45;7.35;;;3.83;;
49614;SDS011;35517;45.272;9.984;2023-04-06T04:06:13;12.93;;;4.68;;
49614;SDS011;35517;45.272;9.984;2023-04-06T04:08:40;12.32;;;4.43;;
49614;SDS011;35517;45.272;9.984;2023-04-06T04:11:07;9.10;;;6.18;;
49614;SDS011;35517;45.272;9.984;2023-04-06T04:13:34;11.07;;;5.00;;
49614;SDS011;35517;45.272;9.984;2023-04-06T04:16:03;19.02;;;6.68;;
49614;SDS011;35517;45.272;9.984;2023-04-06T04:18:29;8.38;;;4.97;;
49614;SDS011;35517;45.272;9.984;2023-04-06T04:20:56;5.88;;;4.38;;
49614;SDS011;35517;45.272;9.984;2023-04-06T04:23:23;6.82;;;5.25;;
49614;SDS011;35517;45.272;9.984;2023-04-06T04:25:50;8.40;;;4.97;;
49614;SDS011;35517;45.272;9.984;2023-04-06T04:28:17;8.48;;;5.15;;
49614;SDS011;35517;45.272;9.984;2023-04-06T04:30:44;12.32;;;5.25;;
49614;SDS011;35517;45.272;9.984;2023-04-06T04:33:12;7.72;;;4.38;;
49614;SDS011;35517;45.272;9.984;2023-04-06T04:35:39;8.10;;;5.22;;
49614;SDS011;35517;45.272;9.984;2023-04-06T04:38:07;7.40;;;4.72;;
49614;SDS011;35517;45.272;9.984;2023-04-06T04:40:37;8.82;;;4.45;;
49614;SDS011;35517;45.272;9.984;2023-04-06T04:43:07;10.38;;;5.07;;
49614;SDS011;35517;45.272;9.984;2023-04-06T04:45:34;14.02;;;4.82;;
49614;SDS011;35517;45.272;9.984;2023-04-06T04:48:19;17.05;;;6.28;;
49614;SDS011;35517;45.272;9.984;2023-04-06T04:50:56;12.57;;;6.25;;
49614;SDS011;35517;45.272;9.984;2023-04-06T04:53:27;7.90;;;4.68;;
49614;SDS011;35517;45.272;9.984;2023-04-06T04:55:59;16.42;;;6.93;;
49614;SDS011;35517;45.272;9.984;2023-04-06T04:58:26;10.82;;;5.55;;
49614;SDS011;35517;45.272;9.984;2023-04-06T05:00:56;10.23;;;6.15;;
49614;SDS011;35517;45.272;9.984;2023-04-06T05:03:23;13.70;;;7.03;;
49614;SDS011;35517;45.272;9.984;2023-04-06T05:06:00;15.35;;;6.25;;
49614;SDS011;35517;45.272;9.984;2023-04-06T05:08:31;16.05;;;6.50;;
49614;SDS011;35517;45.272;9.984;2023-04-06T05:10:59;15.80;;;7.00;;
49614;SDS011;35517;45.272;9.984;2023-04-06T05:13:27;13.00;;;6.85;;
49614;SDS011;35517;45.272;9.984;2023-04-06T05:15:55;16.50;;;7.63;;
49614;SDS011;35517;45.272;9.984;2023-04-06T05:18:28;9.98;;;6.13;;
49614;SDS011;35517;45.272;9.984;2023-04-06T05:20:56;14.10;;;7.60;;
49614;SDS011;35517;45.272;9.984;2023-04-06T05:23:30;18.00;;;8.15;;
49614;SDS011;35517;45.272;9.984;2023-04-06T05:26:00;16.17;;;7.50;;
49614;SDS011;35517;45.272;9.984;2023-04-06T05:28:26;24.52;;;6.32;;
49614;SDS011;35517;45.272;9.984;2023-04-06T05:30:53;11.13;;;5.95;;
49614;SDS011;35517;45.272;9.984;2023-04-06T05:33:20;15.43;;;6.38;;
49614;SDS011;35517;45.272;9.984;2023-04-06T05:36:00;9.35;;;5.45;;
49614;SDS011;35517;45.272;9.984;2023-04-06T05:38:27;17.90;;;6.78;;
49614;SDS011;35517;45.272;9.984;2023-04-06T05:40:56;13.52;;;6.57;;
49614;SDS011;35517;45.272;9.984;2023-04-06T05:43:26;15.13;;;5.90;;
49614;SDS011;35517;45.272;9.984;2023-04-06T05:45:55;15.07;;;6.05;;
49614;SDS011;35517;45.272;9.984;2023-04-06T05:48:21;14.48;;;6.50;;
49614;SDS011;35517;45.272;9.984;2023-04-06T05:50:48;15.02;;;6.82;;
49614;SDS011;35517;45.272;9.984;2023-04-06T05:53:28;11.88;;;6.38;;
49614;SDS011;35517;45.272;9.984;2023-04-06T05:56:00;14.10;;;6.38;;
49614;SDS011;35517;45.272;9.984;2023-04-06T05:58:27;18.90;;;7.10;;
49614;SDS011;35517;45.272;9.984;2023-04-06T06:00:58;20.90;;;6.93;;
49614;SDS011;35517;45.272;9.984;2023-04-06T06:03:26;16.23;;;7.15;;
49614;SDS011;35517;45.272;9.984;2023-04-06T06:06:02;18.58;;;7.43;;
49614;SDS011;35517;45.272;9.984;2023-04-06T06:08:36;23.05;;;7.15;;
49614;SDS011;35517;45.272;9.984;2023-04-06T06:11:08;15.55;;;6.68;;
49614;SDS011;35517;45.272;9.984;2023-04-06T06:13:35;14.02;;;6.30;;
49614;SDS011;35517;45.272;9.984;2023-04-06T06:16:01;12.48;;;6.50;;
49614;SDS011;35517;45.272;9.984;2023-04-06T06:18:31;15.05;;;6.25;;
49614;SDS011;35517;45.272;9.984;2023-04-06T06:20:58;15.38;;;6.28;;
49614;SDS011;35517;45.272;9.984;2023-04-06T06:23:25;17.55;;;6.22;;
49614;SDS011;35517;45.272;9.984;2023-04-06T06:25:52;13.95;;;6.65;;
49614;SDS011;35517;45.272;9.984;2023-04-06T06:28:22;22.92;;;8.60;;
49614;SDS011;35517;45.272;9.984;2023-04-06T06:30:49;13.82;;;6.55;;
49614;SDS011;35517;45.272;9.984;2023-04-06T06:33:20;16.52;;;5.82;;
49614;SDS011;35517;45.272;9.984;2023-04-06T06:35:49;14.65;;;6.38;;
49614;SDS011;35517;45.272;9.984;2023-04-06T06:38:17;16.52;;;6.00;;
49614;SDS011;35517;45.272;9.984;2023-04-06T06:40:44;15.38;;;6.10;;
49614;SDS011;35517;45.272;9.984;2023-04-06T06:43:11;11.45;;;5.28;;
49614;SDS011;35517;45.272;9.984;2023-04-06T06:46:07;14.82;;;6.90;;
49614;SDS011;35517;45.272;9.984;2023-04-06T06:48:33;23.92;;;8.13;;
49614;SDS011;35517;45.272;9.984;2023-04-06T06:51:00;19.80;;;6.88;;
49614;SDS011;35517;45.272;9.984;2023-04-06T06:53:27;16.40;;;7.15;;
49614;SDS011;35517;45.272;9.984;2023-04-06T06:55:54;10.75;;;5.70;;
49614;SDS011;35517;45.272;9.984;2023-04-06T06:58:22;15.20;;;5.25;;
49614;SDS011;35517;45.272;9.984;2023-04-06T07:00:49;12.32;;;5.25;;
49614;SDS011;35517;45.272;9.984;2023-04-06T07:03:15;11.38;;;5.03;;
49614;SDS011;35517;45.272;9.984;2023-04-06T07:05:45;26.23;;;7.18;;
49614;SDS011;35517;45.272;9.984;2023-04-06T07:08:20;17.92;;;8.00;;
49614;SDS011;35517;45.272;9.984;2023-04-06T07:10:46;13.05;;;6.82;;
49614;SDS011;35517;45.272;9.984;2023-04-06T07:13:13;14.25;;;7.03;;
49614;SDS011;35517;45.272;9.984;2023-04-06T07:15:46;19.45;;;5.97;;
49614;SDS011;35517;45.272;9.984;2023-04-06T07:18:12;14.32;;;5.38;;
49614;SDS011;35517;45.272;9.984;2023-04-06T07:20:39;22.02;;;5.53;;
49614;SDS011;35517;45.272;9.984;2023-04-06T07:23:06;11.95;;;5.45;;
49614;SDS011;35517;45.272;9.984;2023-04-06T07:25:32;9.93;;;5.20;;
49614;SDS011;35517;45.272;9.984;2023-04-06T07:27:59;15.38;;;5.65;;
49614;SDS011;35517;45.272;9.984;2023-04-06T07:30:26;32.72;;;7.93;;
49614;SDS011;35517;45.272;9.984;2023-04-06T07:32:54;12.52;;;5.43;;
49614;SDS011;35517;45.272;9.984;2023-04-06T07:35:23;5.70;;;3.40;;
49614;SDS011;35517;45.272;9.984;2023-04-06T07:37:49;7.30;;;4.22;;
49614;SDS011;35517;45.272;9.984;2023-04-06T07:40:16;14.38;;;5.03;;
49614;SDS011;35517;45.272;9.984;2023-04-06T07:42:44;10.55;;;3.90;;
49614;SDS011;35517;45.272;9.984;2023-04-06T07:45:11;7.18;;;4.80;;
49614;SDS011;35517;45.272;9.984;2023-04-06T07:47:37;8.00;;;4.75;;
49614;SDS011;35517;45.272;9.984;2023-04-06T07:50:04;20.60;;;7.20;;
49614;SDS011;35517;45.272;9.984;2023-04-06T07:52:31;9.45;;;4.90;;
49614;SDS011;35517;45.272;9.984;2023-04-06T07:54:59;13.40;;;4.00;;
49614;SDS011;35517;45.272;9.984;2023-04-06T07:57:25;7.60;;;4.18;;
49614;SDS011;35517;45.272;9.984;2023-04-06T07:59:52;6.38;;;3.90;;
49614;SDS011;35517;45.272;9.984;2023-04-06T08:02:18;6.93;;;4.30;;
49614;SDS011;35517;45.272;9.984;2023-04-06T08:04:45;8.43;;;3.80;;
49614;SDS011;35517;45.272;9.984;2023-04-06T08:07:12;10.68;;;4.20;;
49614;SDS011;35517;45.272;9.984;2023-04-06T08:09:38;8.80;;;4.60;;
49614;SDS011;35517;45.272;9.984;2023-04-06T08:12:06;7.65;;;4.80;;
49614;SDS011;35517;45.272;9.984;2023-04-06T08:14:32;8.68;;;3.65;;
49614;SDS011;35517;45.272;9.984;2023-04-06T08:16:59;20.02;;;4.85;;
49614;SDS011;35517;45.272;9.984;2023-04-06T08:19:25;5.75;;;4.50;;
49614;SDS011;35517;45.272;9.984;2023-04-06T08:21:52;5.65;;;3.70;;
49614;SDS011;35517;45.272;9.984;2023-04-06T08:24:19;5.65;;;3.70;;
49614;SDS011;35517;45.272;9.984;2023-04-06T08:26:45;7.18;;;3.65;;
49614;SDS011;35517;45.272;9.984;2023-04-06T08:29:12;8.93;;;4.03;;
49614;SDS011;35517;45.272;9.984;2023-04-06T08:31:38;5.55;;;3.13;;
49614;SDS011;35517;45.272;9.984;2023-04-06T08:34:05;8.75;;;3.10;;
49614;SDS011;35517;45.272;9.984;2023-04-06T08:36:32;5.40;;;2.85;;
49614;SDS011;35517;45.272;9.984;2023-04-06T08:38:59;6.07;;;2.80;;
49614;SDS011;35517;45.272;9.984;2023-04-06T08:41:25;6.57;;;3.03;;
49614;SDS011;35517;45.272;9.984;2023-04-06T08:43:54;5.38;;;3.28;;
49614;SDS011;35517;45.272;9.984;2023-04-06T08:46:22;10.23;;;3.00;;
49614;SDS011;35517;45.272;9.984;2023-04-06T08:48:55;4.57;;;2.78;;
49614;SDS011;35517;45.272;9.984;2023-04-06T08:51:22;5.30;;;2.90;;
49614;SDS011;35517;45.272;9.984;2023-04-06T08:53:50;3.92;;;2.00;;
49614;SDS011;35517;45.272;9.984;2023-04-06T08:56:19;7.38;;;2.33;;
49614;SDS011;35517;45.272;9.984;2023-04-06T08:58:47;5.07;;;2.63;;
49614;SDS011;35517;45.272;9.984;2023-04-06T09:01:14;9.45;;;3.60;;
49614;SDS011;35517;45.272;9.984;2023-04-06T09:03:43;3.40;;;2.00;;
49614;SDS011;35517;45.272;9.984;2023-04-06T09:06:10;3.88;;;2.50;;
49614;SDS011;35517;45.272;9.984;2023-04-06T09:08:38;6.07;;;3.00;;
49614;SDS011;35517;45.272;9.984;2023-04-06T09:11:05;7.57;;;2.55;;
49614;SDS011;35517;45.272;9.984;2023-04-06T09:13:43;5.05;;;2.67;;
49614;SDS011;35517;45.272;9.984;2023-04-06T09:16:10;7.53;;;2.72;;
49614;SDS011;35517;45.272;9.984;2023-04-06T09:18:37;5.60;;;2.70;;
49614;SDS011;35517;45.272;9.984;2023-04-06T09:21:04;22.05;;;5.40;;
49614;SDS011;35517;45.272;9.984;2023-04-06T09:23:31;6.97;;;2.60;;
49614;SDS011;35517;45.272;9.984;2023-04-06T09:26:10;6.97;;;2.63;;
49614;SDS011;35517;45.272;9.984;2023-04-06T09:31:11;4.85;;;2.50;;
49614;SDS011;35517;45.272;9.984;2023-04-06T09:33:38;4.20;;;2.85;;
49614;SDS011;35517;45.272;9.984;2023-04-06T09:36:06;7.30;;;2.78;;
49614;SDS011;35517;45.272;9.984;2023-04-06T09:38:38;5.38;;;2.63;;
49614;SDS011;35517;45.272;9.984;2023-04-06T09:41:05;3.90;;;2.67;;
49614;SDS011;35517;45.272;9.984;2023-04-06T09:43:31;2.92;;;2.40;;
49614;SDS011;35517;45.272;9.984;2023-04-06T09:45:58;6.57;;;2.88;;
49614;SDS011;35517;45.272;9.984;2023-04-06T09:48:25;4.30;;;3.10;;
49614;SDS011;35517;45.272;9.984;2023-04-06T09:50:56;4.85;;;2.15;;
49614;SDS011;35517;45.272;9.984;2023-04-06T09:53:24;2.67;;;1.92;;
49614;SDS011;35517;45.272;9.984;2023-04-06T09:55:52;3.50;;;2.65;;
49614;SDS011;35517;45.272;9.984;2023-04-06T09:58:21;7.05;;;3.17;;
49614;SDS011;35517;45.272;9.984;2023-04-06T10:00:55;5.65;;;3.42;;
49614;SDS011;35517;45.272;9.984;2023-04-06T10:06:11;7.13;;;2.88;;
49614;SDS011;35517;45.272;9.984;2023-04-06T10:08:36;19.48;;;3.65;;
49614;SDS011;35517;45.272;9.984;2023-04-06T10:11:06;6.03;;;3.35;;
49614;SDS011;35517;45.272;9.984;2023-04-06T10:13:32;4.68;;;2.90;;
49614;SDS011;35517;45.272;9.984;2023-04-06T10:15:59;6.65;;;3.30;;
49614;SDS011;35517;45.272;9.984;2023-04-06T10:18:29;5.47;;;3.30;;
49614;SDS011;35517;45.272;9.984;2023-04-06T10:20:57;5.97;;;2.88;;
49614;SDS011;35517;45.272;9.984;2023-04-06T10:23:29;6.38;;;3.45;;
49614;SDS011;35517;45.272;9.984;2023-04-06T10:25:57;3.70;;;3.13;;
49614;SDS011;35517;45.272;9.984;2023-04-06T10:28:25;5.47;;;3.38;;
49614;SDS011;35517;45.272;9.984;2023-04-06T10:30:58;9.60;;;3.50;;
49614;SDS011;35517;45.272;9.984;2023-04-06T10:33:25;5.13;;;4.40;;
49614;SDS011;35517;45.272;9.984;2023-04-06T10:35:52;6.15;;;4.03;;
49614;SDS011;35517;45.272;9.984;2023-04-06T10:38:19;7.45;;;4.10;;
49614;SDS011;35517;45.272;9.984;2023-04-06T10:40:47;5.00;;;3.25;;
49614;SDS011;35517;45.272;9.984;2023-04-06T10:43:18;8.13;;;3.55;;
49614;SDS011;35517;45.272;9.984;2023-04-06T10:45:45;5.80;;;3.85;;
49614;SDS011;35517;45.272;9.984;2023-04-06T10:48:20;8.82;;;3.78;;
49614;SDS011;35517;45.272;9.984;2023-04-06T10:50:48;6.57;;;3.50;;
49614;SDS011;35517;45.272;9.984;2023-04-06T10:53:22;14.68;;;4.63;;
49614;SDS011;35517;45.272;9.984;2023-04-06T10:55:49;7.78;;;3.50;;
49614;SDS011;35517;45.272;9.984;2023-04-06T10:58:16;6.72;;;4.80;;
49614;SDS011;35517;45.272;9.984;2023-04-06T11:00:44;7.75;;;4.32;;
49614;SDS011;35517;45.272;9.984;2023-04-06T11:03:10;7.63;;;4.20;;
49614;SDS011;35517;45.272;9.984;2023-04-06T11:05:37;7.30;;;4.35;;
49614;SDS011;35517;45.272;9.984;2023-04-06T11:08:04;6.75;;;4.10;;
49614;SDS011;35517;45.272;9.984;2023-04-06T11:10:30;6.13;;;4.28;;
49614;SDS011;35517;45.272;9.984;2023-04-06T11:12:57;6.03;;;4.68;;
49614;SDS011;35517;45.272;9.984;2023-04-06T11:15:23;7.97;;;5.18;;
49614;SDS011;35517;45.272;9.984;2023-04-06T11:17:50;9.98;;;4.82;;
49614;SDS011;35517;45.272;9.984;2023-04-06T11:20:16;7.38;;;4.50;;
49614;SDS011;35517;45.272;9.984;2023-04-06T11:22:48;14.07;;;4.32;;
49614;SDS011;35517;45.272;9.984;2023-04-06T11:25:15;12.73;;;4.68;;
49614;SDS011;35517;45.272;9.984;2023-04-06T11:27:42;8.57;;;5.38;;
49614;SDS011;35517;45.272;9.984;2023-04-06T11:30:09;8.05;;;4.90;;
49614;SDS011;35517;45.272;9.984;2023-04-06T11:32:39;11.15;;;5.00;;
49614;SDS011;35517;45.272;9.984;2023-04-06T11:35:10;8.57;;;4.88;;
49614;SDS011;35517;45.272;9.984;2023-04-06T11:37:37;7.32;;;4.78;;
49614;SDS011;35517;45.272;9.984;2023-04-06T11:40:03;15.07;;;5.50;;
49614;SDS011;35517;45.272;9.984;2023-04-06T11:42:34;11.55;;;5.35;;
49614;SDS011;35517;45.272;9.984;2023-04-06T11:45:01;6.72;;;4.63;;
49614;SDS011;35517;45.272;9.984;2023-04-06T11:47:36;10.05;;;5.40;;
49614;SDS011;35517;45.272;9.984;2023-04-06T11:50:10;10.38;;;5.63;;
49614;SDS011;35517;45.272;9.984;2023-04-06T11:52:38;14.35;;;5.88;;
49614;SDS011;35517;45.272;9.984;2023-04-06T11:55:15;7.32;;;5.32;;
49614;SDS011;35517;45.272;9.984;2023-04-06T11:57:42;9.07;;;4.78;;
49614;SDS011;35517;45.272;9.984;2023-04-06T12:00:09;9.95;;;4.97;;
49614;SDS011;35517;45.272;9.984;2023-04-06T12:02:36;7.82;;;5.18;;
49614;SDS011;35517;45.272;9.984;2023-04-06T12:05:04;7.75;;;4.97;;
49614;SDS011;35517;45.272;9.984;2023-04-06T12:07:31;9.55;;;4.78;;
49614;SDS011;35517;45.272;9.984;2023-04-06T12:09:58;8.90;;;4.53;;
49614;SDS011;35517;45.272;9.984;2023-04-06T12:12:25;10.70;;;5.00;;
49614;SDS011;35517;45.272;9.984;2023-04-06T12:14:52;13.23;;;4.88;;
49614;SDS011;35517;45.272;9.984;2023-04-06T12:17:19;8.15;;;5.43;;
49614;SDS011;35517;45.272;9.984;2023-04-06T12:19:46;12.73;;;6.53;;
49614;SDS011;35517;45.272;9.984;2023-04-06T12:22:12;13.70;;;5.15;;
49614;SDS011;35517;45.272;9.984;2023-04-06T12:24:39;7.75;;;4.40;;
49614;SDS011;35517;45.272;9.984;2023-04-06T12:27:06;21.20;;;5.82;;
49614;SDS011;35517;45.272;9.984;2023-04-06T12:29:34;8.82;;;5.60;;
49614;SDS011;35517;45.272;9.984;2023-04-06T12:32:00;8.15;;;5.70;;
49614;SDS011;35517;45.272;9.984;2023-04-06T12:34:27;10.23;;;6.53;;
49614;SDS011;35517;45.272;9.984;2023-04-06T12:36:53;8.55;;;5.63;;
49614;SDS011;35517;45.272;9.984;2023-04-06T12:39:21;15.13;;;6.28;;
49614;SDS011;35517;45.272;9.984;2023-04-06T12:41:48;13.43;;;5.88;;
49614;SDS011;35517;45.272;9.984;2023-04-06T12:44:14;7.50;;;5.63;;
49614;SDS011;35517;45.272;9.984;2023-04-06T12:46:41;13.70;;;5.75;;
49614;SDS011;35517;45.272;9.984;2023-04-06T12:49:08;12.85;;;5.13;;
49614;SDS011;35517;45.272;9.984;2023-04-06T12:51:35;8.82;;;5.72;;
49614;SDS011;35517;45.272;9.984;2023-04-06T12:54:01;11.85;;;4.90;;
49614;SDS011;35517;45.272;9.984;2023-04-06T12:56:28;9.43;;;5.07;;
49614;SDS011;35517;45.272;9.984;2023-04-06T12:58:56;6.50;;;4.68;;
49614;SDS011;35517;45.272;9.984;2023-04-06T13:01:22;9.23;;;6.13;;
49614;SDS011;35517;45.272;9.984;2023-04-06T13:03:50;6.97;;;5.38;;
49614;SDS011;35517;45.272;9.984;2023-04-06T13:06:17;9.27;;;5.50;;
49614;SDS011;35517;45.272;9.984;2023-04-06T13:08:43;7.72;;;5.00;;
49614;SDS011;35517;45.272;9.984;2023-04-06T13:11:10;16.92;;;5.57;;
49614;SDS011;35517;45.272;9.984;2023-04-06T13:13:37;8.05;;;4.45;;
49614;SDS011;35517;45.272;9.984;2023-04-06T13:16:04;10.20;;;5.38;;
49614;SDS011;35517;45.272;9.984;2023-04-06T13:18:31;8.20;;;5.20;;
49614;SDS011;35517;45.272;9.984;2023-04-06T13:20:58;8.95;;;5.85;;
49614;SDS011;35517;45.272;9.984;2023-04-06T13:23:25;13.93;;;4.97;;
49614;SDS011;35517;45.272;9.984;2023-04-06T13:26:01;8.48;;;5.22;;
49614;SDS011;35517;45.272;9.984;2023-04-06T13:28:29;9.43;;;5.03;;
49614;SDS011;35517;45.272;9.984;2023-04-06T13:30:57;12.05;;;5.82;;
49614;SDS011;35517;45.272;9.984;2023-04-06T13:33:24;11.52;;;5.47;;
49614;SDS011;35517;45.272;9.984;2023-04-06T13:35:51;9.95;;;5.60;;
49614;SDS011;35517;45.272;9.984;2023-04-06T13:38:18;26.13;;;8.32;;
49614;SDS011;35517;45.272;9.984;2023-04-06T13:40:44;14.68;;;5.68;;
49614;SDS011;35517;45.272;9.984;2023-04-06T13:43:11;20.08;;;5.63;;
49614;SDS011;35517;45.272;9.984;2023-04-06T13:45:38;9.80;;;4.60;;
49614;SDS011;35517;45.272;9.984;2023-04-06T13:48:05;10.10;;;5.50;;
49614;SDS011;35517;45.272;9.984;2023-04-06T13:50:32;9.20;;;5.82;;
49614;SDS011;35517;45.272;9.984;2023-04-06T13:52:59;10.32;;;5.25;;
49614;SDS011;35517;45.272;9.984;2023-04-06T13:55:25;7.03;;;4.63;;
49614;SDS011;35517;45.272;9.984;2023-04-06T13:57:52;8.20;;;5.35;;
49614;SDS011;35517;45.272;9.984;2023-04-06T14:00:19;11.48;;;5.95;;
49614;SDS011;35517;45.272;9.984;2023-04-06T14:02:45;9.75;;;5.65;;
49614;SDS011;35517;45.272;9.984;2023-04-06T14:05:12;15.93;;;5.50;;
49614;SDS011;35517;45.272;9.984;2023-04-06T14:07:38;9.10;;;4.82;;
49614;SDS011;35517;45.272;9.984;2023-04-06T14:10:05;7.93;;;5.35;;
49614;SDS011;35517;45.272;9.984;2023-04-06T14:12:42;23.10;;;6.00;;
49614;SDS011;35517;45.272;9.984;2023-04-06T14:15:10;10.25;;;5.82;;
49614;SDS011;35517;45.272;9.984;2023-04-06T14:17:37;9.25;;;4.43;;
49614;SDS011;35517;45.272;9.984;2023-04-06T14:20:05;8.65;;;4.85;;
49614;SDS011;35517;45.272;9.984;2023-04-06T14:22:32;8.82;;;4.75;;
49614;SDS011;35517;45.272;9.984;2023-04-06T14:24:58;8.20;;;4.68;;
49614;SDS011;35517;45.272;9.984;2023-04-06T14:27:25;7.85;;;4.72;;
49614;SDS011;35517;45.272;9.984;2023-04-06T14:29:51;7.57;;;4.75;;
49614;SDS011;35517;45.272;9.984;2023-04-06T14:32:19;6.95;;;5.03;;
49614;SDS011;35517;45.272;9.984;2023-04-06T14:34:46;7.43;;;4.10;;
49614;SDS011;35517;45.272;9.984;2023-04-06T14:37:12;7.05;;;4.00;;
49614;SDS011;35517;45.272;9.984;2023-04-06T14:39:39;13.10;;;4.70;;
49614;SDS011;35517;45.272;9.984;2023-04-06T14:42:05;7.00;;;3.97;;
49614;SDS011;35517;45.272;9.984;2023-04-06T14:44:32;9.90;;;4.80;;
49614;SDS011;35517;45.272;9.984;2023-04-06T14:47:00;7.50;;;4.03;;
49614;SDS011;35517;45.272;9.984;2023-04-06T14:49:29;11.73;;;4.75;;
49614;SDS011;35517;45.272;9.984;2023-04-06T14:51:56;8.18;;;4.60;;
49614;SDS011;35517;45.272;9.984;2023-04-06T14:54:24;10.52;;;4.35;;
49614;SDS011;35517;45.272;9.984;2023-04-06T14:56:50;6.82;;;4.78;;